Terminal Aerodrome Forecast
Issued by NWS

Home | Current Version | Previous Version | Graphics & Text | Print | Product List | Glossary On
Versions: 1 2 3 4 5 6 7 8 9 10 11 12 13 14 15 16 17 18 19 20
000
FTUS43 KMPX 300700 AAA
TAFAXN
TAF AMD
KAXN 300732Z 3008/0106 11012KT P6SM OVC004
     FM301300 12014G20KT P6SM BKN006 OVC015
     FM301600 12016G25KT P6SM FEW008 SCT015 BKN100
     FM302100 13015G23KT 6SM -SHRA BR SCT025 BKN050
      TEMPO 0102/0106 4SM -RA BR SCT020 BKN030=

USA.gov is the U.S. government's official web portal to all federal, state and local government web resources and services.